createdAt,value
2023-02-03T00:01:55.316Z,97783.00
2023-02-03T00:04:22.377Z,97773.00
2023-02-03T00:06:49.341Z,97790.00
2023-02-03T00:09:16.460Z,97784.00
2023-02-03T00:11:43.263Z,97784.00
2023-02-03T00:14:10.031Z,97785.00
2023-02-03T00:16:36.930Z,97780.00
2023-02-03T00:19:04.033Z,97772.00
2023-02-03T00:21:30.913Z,97769.00
2023-02-03T00:23:57.685Z,97769.00
2023-02-03T00:26:26.004Z,97775.00
2023-02-03T00:28:52.853Z,97762.00
2023-02-03T00:31:23.662Z,97770.00
2023-02-03T00:33:56.141Z,97780.00
2023-02-03T00:36:24.244Z,97778.00
2023-02-03T00:38:51.135Z,97778.00
2023-02-03T00:41:19.100Z,97786.00
2023-02-03T00:43:45.965Z,97765.00
2023-02-03T00:46:13.401Z,97771.00
2023-02-03T00:48:40.383Z,97766.00
2023-02-03T00:51:07.664Z,97771.00
2023-02-03T00:53:34.452Z,97765.00
2023-02-03T00:56:01.317Z,97769.00
2023-02-03T00:58:28.108Z,97768.00
2023-02-03T01:00:57.077Z,97769.00
2023-02-03T01:03:24.158Z,97769.00
2023-02-03T01:05:51.146Z,97756.00
2023-02-03T01:08:18.033Z,97761.00
2023-02-03T01:10:44.801Z,97762.00
2023-02-03T01:13:11.572Z,97749.00
2023-02-03T01:15:38.407Z,97746.00
2023-02-03T01:18:05.208Z,97754.00
2023-02-03T01:20:31.998Z,97752.00
2023-02-03T01:22:58.781Z,97744.00
2023-02-03T01:25:25.620Z,97745.00
2023-02-03T01:27:52.372Z,97737.00
2023-02-03T01:30:19.473Z,97740.00
2023-02-03T01:32:46.239Z,97735.00
2023-02-03T01:35:13.008Z,97741.00
2023-02-03T01:37:39.794Z,97739.00
2023-02-03T01:40:07.765Z,97747.00
2023-02-03T01:42:34.776Z,97733.00
2023-02-03T01:45:01.646Z,97740.00
2023-02-03T01:47:37.392Z,97735.00
2023-02-03T01:50:15.236Z,97737.00
2023-02-03T01:52:45.836Z,97742.00
2023-02-03T01:55:17.908Z,97727.00
2023-02-03T01:57:59.956Z,97729.00
2023-02-03T02:00:27.675Z,97736.00
2023-02-03T02:02:55.464Z,97733.00
2023-02-03T02:05:49.231Z,97723.00
2023-02-03T02:08:18.598Z,97721.00
2023-02-03T02:10:45.992Z,97725.00
2023-02-03T02:13:13.379Z,97725.00
2023-02-03T02:16:22.748Z,97722.00
2023-02-03T02:19:40.294Z,97714.00
2023-02-03T02:22:26.447Z,97710.00
2023-02-03T02:25:14.036Z,97704.00
2023-02-03T02:28:02.642Z,97694.00
2023-02-03T02:30:54.486Z,97694.00
2023-02-03T02:33:42.178Z,97702.00
2023-02-03T02:36:54.283Z,97698.00
2023-02-03T02:39:36.839Z,97697.00
2023-02-03T02:42:12.407Z,97691.00
2023-02-03T02:44:49.870Z,97700.00
2023-02-03T02:47:20.431Z,97707.00
2023-02-03T02:50:20.347Z,97698.00
2023-02-03T02:52:50.163Z,97710.00
2023-02-03T02:55:28.193Z,97699.00
2023-02-03T02:57:58.137Z,97697.00
2023-02-03T03:00:25.285Z,97698.00
2023-02-03T03:02:52.243Z,97696.00
2023-02-03T03:05:19.643Z,97694.00
2023-02-03T03:07:56.620Z,97698.00
2023-02-03T03:10:30.454Z,97693.00
2023-02-03T03:13:07.668Z,97700.00
2023-02-03T03:15:36.107Z,97678.00
2023-02-03T03:18:11.058Z,97665.00
2023-02-03T03:20:42.895Z,97670.00
2023-02-03T03:23:39.810Z,97679.00
2023-02-03T03:26:50.184Z,97665.00
2023-02-03T03:29:22.952Z,97657.00
2023-02-03T03:31:50.304Z,97677.00
2023-02-03T03:34:18.321Z,97684.00
2023-02-03T03:36:58.674Z,97700.00
2023-02-03T03:39:47.740Z,97685.00
2023-02-03T03:42:23.079Z,97681.00
2023-02-03T03:44:55.059Z,97679.00
2023-02-03T03:47:39.903Z,97687.00
2023-02-03T03:50:11.742Z,97688.00
2023-02-03T03:52:39.840Z,97687.00
2023-02-03T03:55:10.560Z,97684.00
2023-02-03T03:57:48.985Z,97676.00
2023-02-03T04:00:19.185Z,97668.00
2023-02-03T04:02:51.946Z,97674.00
2023-02-03T04:05:19.965Z,97692.00
2023-02-03T04:07:48.119Z,97702.00
2023-02-03T04:10:24.053Z,97703.00
2023-02-03T04:12:50.950Z,97697.00
2023-02-03T04:15:17.740Z,97681.00
2023-02-03T04:17:44.577Z,97671.00
2023-02-03T04:20:12.420Z,97668.00
2023-02-03T04:22:39.268Z,97654.00
2023-02-03T04:25:06.455Z,97674.00
2023-02-03T04:27:33.503Z,97680.00
2023-02-03T04:30:00.372Z,97674.00
2023-02-03T04:32:27.370Z,97677.00
2023-02-03T04:34:54.173Z,97673.00
2023-02-03T04:37:23.006Z,97672.00
2023-02-03T04:39:52.188Z,97669.00
2023-02-03T04:42:20.102Z,97657.00
2023-02-03T04:44:47.218Z,97650.00
2023-02-03T04:47:14.624Z,97673.00
2023-02-03T04:49:41.418Z,97670.00
2023-02-03T04:52:08.533Z,97668.00
2023-02-03T04:54:35.689Z,97657.00
2023-02-03T04:57:02.716Z,97661.00
2023-02-03T04:59:29.582Z,97649.00
2023-02-03T05:01:56.330Z,97635.00
2023-02-03T05:04:23.411Z,97624.00
2023-02-03T05:06:50.246Z,97617.00
2023-02-03T05:09:17.287Z,97608.00
2023-02-03T05:11:44.067Z,97604.00
2023-02-03T05:14:10.960Z,97609.00
2023-02-03T05:16:37.804Z,97613.00
2023-02-03T05:19:04.734Z,97629.00
2023-02-03T05:21:31.545Z,97639.00
2023-02-03T05:23:58.424Z,97636.00
2023-02-03T05:26:25.365Z,97634.00
2023-02-03T05:28:53.262Z,97630.00
2023-02-03T05:31:21.009Z,97634.00
2023-02-03T05:33:47.868Z,97653.00
2023-02-03T05:36:14.648Z,97674.00
2023-02-03T05:38:42.511Z,97659.00
2023-02-03T05:41:31.652Z,97643.00
2023-02-03T05:43:58.449Z,97657.00
2023-02-03T05:46:25.318Z,97645.00
2023-02-03T05:48:52.070Z,97647.00
2023-02-03T05:51:18.831Z,97632.00
2023-02-03T05:53:45.591Z,97627.00
2023-02-03T05:56:12.458Z,97631.00
2023-02-03T05:58:39.244Z,97619.00
2023-02-03T06:01:06.156Z,97624.00
2023-02-03T06:03:33.070Z,97614.00
2023-02-03T06:05:59.944Z,97612.00
2023-02-03T06:08:28.618Z,97610.00
2023-02-03T06:11:04.836Z,97587.00
2023-02-03T06:13:31.685Z,97590.00
2023-02-03T06:15:58.464Z,97604.00
2023-02-03T06:18:25.293Z,97585.00
2023-02-03T06:20:52.234Z,97587.00
2023-02-03T06:23:19.310Z,97581.00
2023-02-03T06:25:49.140Z,97575.00
2023-02-03T06:28:16.676Z,97562.00
2023-02-03T06:30:44.414Z,97567.00
2023-02-03T06:33:11.304Z,97565.00
2023-02-03T06:35:38.144Z,97551.00
2023-02-03T06:38:04.995Z,97548.00
2023-02-03T06:40:31.867Z,97537.00
2023-02-03T06:42:58.722Z,97546.00
2023-02-03T06:45:25.815Z,97547.00
2023-02-03T06:47:52.751Z,97541.00
2023-02-03T06:50:19.787Z,97537.00
2023-02-03T06:52:46.612Z,97534.00
2023-02-03T06:55:13.401Z,97533.00
2023-02-03T06:57:48.169Z,97515.00
2023-02-03T07:00:19.198Z,97536.00
2023-02-03T07:02:46.668Z,97535.00
2023-02-03T07:05:13.943Z,97539.00
2023-02-03T07:07:40.801Z,97551.00
2023-02-03T07:10:08.540Z,97560.00
2023-02-03T07:12:36.581Z,97564.00
2023-02-03T07:15:05.284Z,97559.00
2023-02-03T07:17:32.213Z,97558.00
2023-02-03T07:19:59.060Z,97572.00
2023-02-03T07:22:25.858Z,97546.00
2023-02-03T07:24:52.635Z,97563.00
2023-02-03T07:27:20.315Z,97538.00
2023-02-03T07:29:47.142Z,97553.00
2023-02-03T07:32:14.207Z,97544.00
2023-02-03T07:34:41.218Z,97546.00
2023-02-03T07:37:08.005Z,97543.00
2023-02-03T07:39:34.805Z,97543.00
2023-02-03T07:42:01.588Z,97553.00
2023-02-03T07:44:28.358Z,97540.00
2023-02-03T07:46:55.451Z,97534.00
2023-02-03T07:49:22.244Z,97554.00
2023-02-03T07:51:49.180Z,97537.00
2023-02-03T07:54:16.052Z,97526.00
2023-02-03T07:56:43.476Z,97534.00
2023-02-03T07:59:10.393Z,97544.00
2023-02-03T08:01:37.324Z,97525.00
2023-02-03T08:04:05.599Z,97533.00
2023-02-03T08:06:32.798Z,97529.00
2023-02-03T08:08:59.853Z,97536.00
2023-02-03T08:11:26.755Z,97524.00
2023-02-03T08:13:53.652Z,97520.00
2023-02-03T08:16:20.637Z,97514.00
2023-02-03T08:18:47.519Z,97510.00
2023-02-03T08:21:14.743Z,97513.00
2023-02-03T08:23:41.590Z,97518.00
2023-02-03T08:26:08.393Z,97489.00
2023-02-03T08:28:35.280Z,97520.00
2023-02-03T08:31:02.510Z,97501.00
2023-02-03T08:33:29.592Z,97485.00
2023-02-03T08:35:57.011Z,97511.00
2023-02-03T08:38:24.145Z,97497.00
2023-02-03T08:40:51.191Z,97511.00
2023-02-03T08:43:18.279Z,97493.00
2023-02-03T08:45:45.170Z,97488.00
2023-02-03T08:48:12.125Z,97498.00
2023-02-03T08:50:44.367Z,97494.00
2023-02-03T08:53:11.505Z,97484.00
2023-02-03T08:55:41.763Z,97478.00
2023-02-03T08:58:08.620Z,97465.00
2023-02-03T09:00:35.483Z,97461.00
2023-02-03T09:59:27.886Z,97472.00
2023-02-03T10:02:24.511Z,97468.00
2023-02-03T10:04:53.419Z,97480.00
2023-02-03T10:07:34.599Z,97471.00
2023-02-03T10:17:38.809Z,97448.00
2023-02-03T10:20:35.966Z,97465.00
2023-02-03T10:24:13.164Z,97466.00
2023-02-03T10:26:49.298Z,97470.00
2023-02-03T10:29:34.336Z,97466.00
2023-02-03T10:32:01.453Z,97467.00
2023-02-03T10:34:28.337Z,97491.00
2023-02-03T10:37:03.851Z,97477.00
2023-02-03T10:42:46.691Z,97442.00
2023-02-03T10:45:15.618Z,97431.00
2023-02-03T10:47:55.544Z,97430.00
2023-02-03T10:50:31.601Z,97443.00
2023-02-03T10:53:32.355Z,97450.00
2023-02-03T10:56:10.692Z,97439.00
2023-02-03T10:58:47.166Z,97443.00
2023-02-03T11:01:23.099Z,97434.00
2023-02-03T11:04:05.293Z,97408.00
2023-02-03T11:06:36.876Z,97406.00
2023-02-03T11:09:39.850Z,97393.00
2023-02-03T11:12:21.496Z,97389.00
2023-02-03T11:14:52.602Z,97384.00
2023-02-03T11:17:30.319Z,97370.00
2023-02-03T11:20:14.292Z,97386.00
2023-02-03T11:22:43.953Z,97374.00
2023-02-03T11:25:33.435Z,97394.00
2023-02-03T11:28:10.253Z,97394.00
2023-02-03T11:30:38.826Z,97388.00
2023-02-03T11:33:24.082Z,97395.00
2023-02-03T11:35:59.987Z,97381.00
2023-02-03T11:38:33.439Z,97389.00
2023-02-03T11:41:04.735Z,97374.00
2023-02-03T11:43:31.730Z,97372.00
2023-02-03T11:46:12.433Z,97372.00
2023-02-03T11:48:59.735Z,97354.00
2023-02-03T11:51:52.439Z,97347.00
2023-02-03T11:54:41.357Z,97334.00
2023-02-03T11:57:47.033Z,97326.00
2023-02-03T12:00:54.212Z,97322.00
2023-02-03T12:04:00.479Z,97326.00
2023-02-03T12:07:20.410Z,97318.00
2023-02-03T12:10:10.088Z,97348.00
2023-02-03T12:13:05.817Z,97333.00
2023-02-03T12:15:54.555Z,97333.00
2023-02-03T12:18:32.436Z,97347.00
2023-02-03T12:21:26.430Z,97346.00
2023-02-03T12:24:24.175Z,97348.00
2023-02-03T12:27:39.487Z,97343.00
2023-02-03T12:30:27.874Z,97318.00
2023-02-03T12:33:02.681Z,97298.00
2023-02-03T12:35:36.464Z,97306.00
2023-02-03T12:38:18.653Z,97303.00
2023-02-03T12:40:55.650Z,97285.00
2023-02-03T12:43:49.444Z,97303.00
2023-02-03T12:46:28.193Z,97296.00
2023-02-03T12:49:25.551Z,97309.00
2023-02-03T12:52:02.582Z,97283.00
2023-02-03T12:54:45.518Z,97281.00
2023-02-03T12:57:44.947Z,97240.00
2023-02-03T13:00:19.601Z,97252.00
2023-02-03T13:03:02.550Z,97228.00
2023-02-03T13:06:19.150Z,97205.00
2023-02-03T13:09:34.844Z,97169.00
2023-02-03T13:12:44.215Z,97170.00
2023-02-03T13:15:32.908Z,97164.00
2023-02-03T13:18:26.508Z,97168.00
2023-02-03T13:20:54.488Z,97171.00
2023-02-03T13:23:24.166Z,97137.00
2023-02-03T13:26:16.700Z,97122.00
2023-02-03T13:28:53.457Z,97135.00
2023-02-03T13:31:57.591Z,97143.00
2023-02-03T13:34:39.665Z,97138.00
2023-02-03T13:37:34.286Z,97145.00
2023-02-03T13:40:22.797Z,97133.00
2023-02-03T13:43:03.744Z,97165.00
2023-02-03T13:45:42.335Z,97168.00
2023-02-03T13:48:31.583Z,97186.00
2023-02-03T13:51:43.359Z,97187.00
2023-02-03T13:54:37.078Z,97183.00
2023-02-03T13:57:20.227Z,97183.00
2023-02-03T13:59:48.370Z,97181.00
2023-02-03T14:02:26.884Z,97195.00
2023-02-03T14:04:59.379Z,97184.00
2023-02-03T14:07:45.934Z,97177.00
2023-02-03T14:10:13.024Z,97192.00
2023-02-03T14:12:52.090Z,97202.00
2023-02-03T14:15:28.809Z,97219.00
2023-02-03T14:18:07.225Z,97223.00
2023-02-03T14:20:48.838Z,97211.00
2023-02-03T14:23:26.303Z,97190.00
2023-02-03T14:25:58.391Z,97191.00
2023-02-03T14:28:39.938Z,97201.00
2023-02-03T14:31:23.068Z,97193.00
2023-02-03T14:33:57.354Z,97199.00
2023-02-03T14:36:35.874Z,97190.00
2023-02-03T14:39:36.453Z,97186.00
2023-02-03T14:42:11.779Z,97192.00
2023-02-03T14:44:44.215Z,97176.00
2023-02-03T14:47:32.376Z,97181.00
2023-02-03T14:50:38.329Z,97174.00
2023-02-03T14:53:47.893Z,97182.00
2023-02-03T14:57:16.708Z,97186.00
2023-02-03T14:59:54.882Z,97186.00
2023-02-03T15:02:26.317Z,97181.00
2023-02-03T15:05:13.462Z,97200.00
2023-02-03T15:07:52.086Z,97201.00
2023-02-03T15:10:24.258Z,97187.00
2023-02-03T15:12:54.378Z,97186.00
2023-02-03T15:15:31.543Z,97145.00
2023-02-03T15:18:20.120Z,97141.00
2023-02-03T15:20:53.362Z,97149.00
2023-02-03T15:23:25.403Z,97139.00
2023-02-03T15:26:03.166Z,97123.00
2023-02-03T15:28:30.625Z,97117.00
2023-02-03T15:31:44.935Z,97090.00
2023-02-03T15:34:35.468Z,97115.00
2023-02-03T15:37:18.282Z,97103.00
2023-02-03T15:39:53.936Z,97110.00
2023-02-03T15:42:50.962Z,97105.00
2023-02-03T15:45:29.551Z,97122.00
2023-02-03T15:48:05.458Z,97123.00
2023-02-03T15:50:49.004Z,97129.00
2023-02-03T15:53:27.666Z,97153.00
2023-02-03T15:56:05.315Z,97149.00
2023-02-03T15:58:45.807Z,97133.00
2023-02-03T16:01:17.731Z,97161.00
2023-02-03T16:03:55.971Z,97191.00
2023-02-03T16:06:44.911Z,97180.00
2023-02-03T16:09:42.008Z,97206.00
2023-02-03T16:12:17.544Z,97175.00
2023-02-03T16:14:45.055Z,97179.00
2023-02-03T16:17:32.533Z,97193.00
2023-02-03T16:20:11.607Z,97202.00
2023-02-03T16:22:38.314Z,97187.00
2023-02-03T16:25:24.907Z,97196.00
2023-02-03T16:28:27.284Z,97183.00
2023-02-03T16:31:22.123Z,97191.00
2023-02-03T16:34:10.497Z,97180.00
2023-02-03T16:37:01.694Z,97184.00
2023-02-03T16:39:47.821Z,97182.00
2023-02-03T16:42:40.249Z,97182.00
2023-02-03T16:45:34.999Z,97167.00
2023-02-03T16:48:22.544Z,97181.00
2023-02-03T16:50:58.939Z,97158.00
2023-02-03T16:53:30.986Z,97181.00
2023-02-03T16:56:04.525Z,97172.00
2023-02-03T16:58:32.258Z,97180.00
2023-02-03T17:01:02.719Z,97183.00
2023-02-03T17:03:32.723Z,97175.00
2023-02-03T17:06:05.798Z,97177.00
2023-02-03T17:08:34.668Z,97165.00
2023-02-03T17:11:09.635Z,97177.00
2023-02-03T17:13:36.839Z,97182.00
2023-02-03T17:16:11.074Z,97191.00
2023-02-03T17:18:39.660Z,97180.00
2023-02-03T17:21:10.833Z,97201.00
2023-02-03T17:23:38.440Z,97198.00
2023-02-03T17:26:06.344Z,97183.00
2023-02-03T17:28:33.744Z,97183.00
2023-02-03T17:31:04.455Z,97198.00
2023-02-03T17:33:32.986Z,97204.00
2023-02-03T17:36:16.440Z,97214.00
2023-02-03T17:55:18.899Z,97267.00
2023-02-03T17:57:45.688Z,97249.00
2023-02-03T18:00:13.066Z,97260.00
2023-02-03T18:02:40.086Z,97245.00
2023-02-03T18:05:07.499Z,97268.00
2023-02-03T18:07:34.290Z,97249.00
2023-02-03T18:10:01.168Z,97260.00
2023-02-03T18:12:27.943Z,97269.00
2023-02-03T18:14:55.049Z,97276.00
2023-02-03T18:17:22.488Z,97283.00
2023-02-03T18:19:55.759Z,97285.00
2023-02-03T18:22:23.329Z,97280.00
2023-02-03T18:24:52.931Z,97263.00
2023-02-03T18:27:20.103Z,97270.00
2023-02-03T18:29:48.412Z,97283.00
2023-02-03T18:32:16.717Z,97297.00
2023-02-03T18:34:43.790Z,97304.00
2023-02-03T18:37:11.253Z,97276.00
2023-02-03T18:39:38.489Z,97264.00
2023-02-03T18:42:07.107Z,97265.00
2023-02-03T18:44:34.104Z,97259.00
2023-02-03T18:47:06.519Z,97266.00
2023-02-03T18:49:35.755Z,97288.00
2023-02-03T18:52:02.600Z,97270.00
2023-02-03T18:54:29.620Z,97289.00
2023-02-03T18:57:00.612Z,97284.00
2023-02-03T18:59:27.413Z,97303.00
2023-02-03T19:01:54.248Z,97304.00
2023-02-03T19:04:21.142Z,97307.00
2023-02-03T19:06:48.027Z,97330.00
2023-02-03T19:09:17.853Z,97345.00
2023-02-03T19:11:45.075Z,97347.00
2023-02-03T19:14:14.225Z,97339.00
2023-02-03T19:16:41.110Z,97341.00
2023-02-03T19:19:08.147Z,97330.00
2023-02-03T19:21:35.481Z,97335.00
2023-02-03T19:24:02.257Z,97337.00
2023-02-03T19:26:29.207Z,97326.00
2023-02-03T19:28:56.205Z,97335.00
2023-02-03T19:31:23.505Z,97335.00
2023-02-03T19:33:50.751Z,97341.00
2023-02-03T19:36:17.717Z,97341.00
2023-02-03T19:38:44.573Z,97339.00
2023-02-03T19:41:11.796Z,97345.00
2023-02-03T19:43:40.027Z,97352.00
2023-02-03T19:46:08.454Z,97343.00
2023-02-03T19:48:36.349Z,97342.00
2023-02-03T19:51:03.349Z,97349.00
2023-02-03T19:53:30.170Z,97359.00
2023-02-03T19:55:57.090Z,97373.00
2023-02-03T19:58:24.088Z,97357.00
2023-02-03T20:00:51.757Z,97359.00
2023-02-03T20:03:19.900Z,97371.00
2023-02-03T20:05:47.131Z,97381.00
2023-02-03T20:08:15.796Z,97361.00
2023-02-03T20:10:46.092Z,97378.00
2023-02-03T20:13:13.717Z,97386.00
2023-02-03T20:15:41.085Z,97378.00
2023-02-03T20:18:08.662Z,97388.00
2023-02-03T20:20:36.173Z,97382.00
2023-02-03T20:23:03.331Z,97375.00
2023-02-03T20:25:30.353Z,97387.00
2023-02-03T20:27:58.311Z,97378.00
2023-02-03T20:30:25.295Z,97385.00
2023-02-03T20:32:54.592Z,97382.00
2023-02-03T20:35:23.856Z,97387.00
2023-02-03T20:37:51.235Z,97399.00
2023-02-03T20:40:22.399Z,97381.00
2023-02-03T20:42:50.124Z,97419.00
2023-02-03T20:45:19.746Z,97394.00
2023-02-03T20:47:47.199Z,97396.00
2023-02-03T20:50:18.232Z,97406.00
2023-02-03T20:52:49.644Z,97396.00
2023-02-03T20:55:20.303Z,97395.00
2023-02-03T20:57:51.535Z,97400.00
2023-02-03T21:00:24.915Z,97400.00
2023-02-03T21:03:11.130Z,97398.00
2023-02-03T21:05:42.118Z,97396.00
2023-02-03T21:08:18.680Z,97397.00
2023-02-03T21:10:47.303Z,97392.00
2023-02-03T21:13:23.815Z,97407.00
2023-02-03T21:15:54.964Z,97405.00
2023-02-03T21:18:34.066Z,97419.00
2023-02-03T21:21:02.251Z,97399.00
2023-02-03T21:23:39.988Z,97399.00
2023-02-03T21:26:32.152Z,97403.00
2023-02-03T21:29:01.008Z,97420.00
2023-02-03T21:31:33.930Z,97417.00
2023-02-03T21:34:03.798Z,97426.00
2023-02-03T21:36:38.259Z,97427.00
2023-02-03T21:39:31.775Z,97427.00
2023-02-03T21:42:05.345Z,97423.00
2023-02-03T21:44:35.397Z,97440.00
2023-02-03T21:47:11.942Z,97430.00
2023-02-03T21:49:38.671Z,97433.00
2023-02-03T21:52:11.202Z,97446.00
2023-02-03T21:54:43.489Z,97435.00
2023-02-03T21:57:16.951Z,97453.00
2023-02-03T21:59:46.998Z,97447.00
2023-02-03T22:03:09.448Z,97474.00
2023-02-03T22:05:36.326Z,97458.00
2023-02-03T22:08:20.060Z,97481.00
2023-02-03T22:10:47.483Z,97479.00
2023-02-03T22:13:15.518Z,97467.00
2023-02-03T22:15:43.357Z,97484.00
2023-02-03T22:18:10.751Z,97481.00
2023-02-03T22:20:37.563Z,97476.00
2023-02-03T22:23:04.826Z,97484.00
2023-02-03T22:25:31.672Z,97473.00
2023-02-03T22:27:58.682Z,97487.00
2023-02-03T22:30:25.502Z,97489.00
2023-02-03T22:32:52.277Z,97487.00
2023-02-03T22:35:19.085Z,97511.00
2023-02-03T22:37:45.958Z,97498.00
2023-02-03T22:40:13.052Z,97500.00
2023-02-03T22:42:40.149Z,97498.00
2023-02-03T22:45:08.112Z,97496.00
2023-02-03T22:47:34.961Z,97487.00
2023-02-03T22:50:01.843Z,97482.00
2023-02-03T22:52:28.653Z,97493.00
2023-02-03T22:54:55.504Z,97487.00
2023-02-03T22:57:22.380Z,97475.00
2023-02-03T22:59:49.122Z,97487.00
2023-02-03T23:02:16.740Z,97478.00
2023-02-03T23:04:43.644Z,97491.00
2023-02-03T23:07:10.439Z,97478.00
2023-02-03T23:09:37.254Z,97491.00
2023-02-03T23:12:04.527Z,97492.00
2023-02-03T23:14:31.380Z,97487.00
2023-02-03T23:16:58.151Z,97489.00
2023-02-03T23:19:25.013Z,97474.00
2023-02-03T23:21:51.821Z,97486.00
2023-02-03T23:24:18.570Z,97489.00
2023-02-03T23:26:45.391Z,97481.00
2023-02-03T23:29:12.158Z,97485.00
2023-02-03T23:31:39.075Z,97499.00
2023-02-03T23:34:24.304Z,97486.00
2023-02-03T23:36:51.111Z,97488.00
2023-02-03T23:39:17.910Z,97495.00
2023-02-03T23:41:44.659Z,97482.00
2023-02-03T23:44:11.746Z,97478.00
2023-02-03T23:46:39.749Z,97489.00
2023-02-03T23:49:07.317Z,97495.00
2023-02-03T23:51:34.906Z,97504.00
2023-02-03T23:54:01.759Z,97483.00
2023-02-03T23:56:28.999Z,97505.00
2023-02-03T23:58:56.579Z,97495.00
